Time;durP1;ratioP1;P1;durP2;ratioP2;P2;SDS_P1;SDS_P2;PMS_P1;PMS_P2;Temp;Humidity;BMP_temperature;BMP_pressure;BME280_temperature;BME280_humidity;BME280_pressure;Samples;Min_cycle;Max_cycle;Signal;HPM_P1;HPM_P2
2021/03/04 00:01:32;;;;;;;154.68;76.80;;;7.90;99.90;;;;;;5084344;28;20214;-79
2021/03/04 00:03:58;;;;;;;126.10;73.07;;;7.90;99.90;;;;;;5084434;28;20202;-78
2021/03/04 00:06:25;;;;;;;137.13;71.57;;;7.90;99.90;;;;;;5085134;28;20221;-79
2021/03/04 00:08:54;;;;;;;137.10;75.13;;;7.90;99.90;;;;;;5085575;28;20217;-79
2021/03/04 00:11:20;;;;;;;141.05;68.75;;;7.90;99.90;;;;;;5086164;28;20262;-79
2021/03/04 00:13:47;;;;;;;139.68;71.90;;;7.90;99.90;;;;;;5085954;28;20209;-78
2021/03/04 00:16:14;;;;;;;138.93;72.32;;;7.90;99.90;;;;;;5085300;28;20198;-79
2021/03/04 00:18:40;;;;;;;127.25;67.35;;;7.90;99.90;;;;;;5086279;28;20221;-80
2021/03/04 00:21:06;;;;;;;137.45;71.22;;;8.00;99.90;;;;;;5085913;28;20571;-79
2021/03/04 00:23:32;;;;;;;140.02;73.53;;;8.10;99.90;;;;;;5085850;28;20201;-80
2021/03/04 00:25:59;;;;;;;135.20;71.03;;;8.10;99.90;;;;;;5083885;28;20198;-79
2021/03/04 00:28:25;;;;;;;143.10;70.40;;;8.00;99.90;;;;;;5084591;28;20242;-80
2021/03/04 00:30:52;;;;;;;131.98;71.90;;;8.00;99.90;;;;;;5084433;28;20194;-79
2021/03/04 00:33:19;;;;;;;145.75;71.47;;;7.90;99.90;;;;;;5084814;28;20197;-80
2021/03/04 00:35:45;;;;;;;132.48;71.72;;;7.90;99.90;;;;;;5084907;28;20199;-77
2021/03/04 00:38:13;;;;;;;120.07;65.47;;;7.80;99.90;;;;;;5083516;28;20235;-81
2021/03/04 00:40:40;;;;;;;133.35;64.35;;;7.80;99.90;;;;;;5084568;28;20210;-80
2021/03/04 00:43:07;;;;;;;112.00;62.05;;;7.80;99.90;;;;;;5084901;28;20221;-80
2021/03/04 00:45:33;;;;;;;124.22;65.03;;;7.80;99.90;;;;;;5085187;28;20209;-79
2021/03/04 00:47:59;;;;;;;106.32;59.45;;;7.80;99.90;;;;;;5082673;28;20223;-80
2021/03/04 00:50:25;;;;;;;105.78;56.53;;;7.90;99.90;;;;;;5084298;28;20204;-81
2021/03/04 00:52:52;;;;;;;102.78;56.42;;;7.80;99.90;;;;;;5066278;28;20258;-78
2021/03/04 00:55:18;;;;;;;100.20;53.55;;;7.90;99.90;;;;;;5084827;28;20205;-81
2021/03/04 00:57:44;;;;;;;105.70;56.47;;;7.90;99.90;;;;;;5085540;28;20214;-81
2021/03/04 01:00:13;;;;;;;94.80;50.85;;;8.00;99.90;;;;;;5085538;28;20212;-81
2021/03/04 01:02:40;;;;;;;86.38;47.47;;;8.10;99.90;;;;;;5085146;28;20573;-79
2021/03/04 01:05:07;;;;;;;99.72;50.88;;;8.00;99.90;;;;;;5084868;28;20203;-80
2021/03/04 01:07:33;;;;;;;99.40;51.80;;;8.00;99.90;;;;;;5083772;28;20226;-81
2021/03/04 01:09:59;;;;;;;92.57;49.10;;;7.90;99.90;;;;;;5085711;28;20212;-81
2021/03/04 01:12:26;;;;;;;81.28;47.15;;;7.90;99.90;;;;;;5086599;28;20204;-81
2021/03/04 01:14:52;;;;;;;97.40;49.92;;;7.80;99.90;;;;;;5085385;28;20198;-81
2021/03/04 01:17:19;;;;;;;96.82;47.13;;;7.70;99.90;;;;;;5083581;28;20242;-80
2021/03/04 01:19:45;;;;;;;109.40;54.90;;;7.70;99.90;;;;;;5085243;28;20637;-82
2021/03/04 01:22:12;;;;;;;91.50;47.08;;;7.70;99.90;;;;;;5086317;28;20675;-81
2021/03/04 01:24:39;;;;;;;95.20;48.70;;;7.70;99.90;;;;;;5084367;28;20197;-81
2021/03/04 01:27:06;;;;;;;96.38;49.22;;;7.70;99.90;;;;;;5083177;28;20220;-80
2021/03/04 01:29:32;;;;;;;103.07;53.42;;;7.70;99.90;;;;;;5083788;28;20204;-79
2021/03/04 01:31:58;;;;;;;104.50;48.97;;;7.70;99.90;;;;;;5084737;28;20197;-81
2021/03/04 01:34:25;;;;;;;102.68;49.92;;;7.70;99.90;;;;;;5084169;28;20194;-81
2021/03/04 01:36:51;;;;;;;95.35;50.10;;;7.70;99.90;;;;;;5084316;28;20202;-80
2021/03/04 01:39:18;;;;;;;92.97;47.50;;;7.70;99.90;;;;;;5084805;28;20196;-81
2021/03/04 01:41:44;;;;;;;98.28;49.08;;;7.60;99.90;;;;;;5084948;28;20221;-80
2021/03/04 01:44:10;;;;;;;87.70;44.05;;;7.40;99.90;;;;;;5084035;28;20198;-80
2021/03/04 01:46:37;;;;;;;102.90;49.55;;;7.30;99.90;;;;;;5084290;28;20198;-80
2021/03/04 01:49:03;;;;;;;103.25;50.67;;;7.30;99.90;;;;;;5083401;28;20222;-80
2021/03/04 01:51:31;;;;;;;85.65;42.83;;;7.30;99.90;;;;;;5084640;28;20729;-82
2021/03/04 01:53:57;;;;;;;91.18;46.35;;;7.30;99.90;;;;;;5084456;28;20200;-81
2021/03/04 01:56:23;;;;;;;90.72;45.40;;;7.20;99.90;;;;;;5084103;28;20742;-79
2021/03/04 01:58:49;;;;;;;92.80;47.45;;;7.10;99.90;;;;;;5084704;28;20260;-79
2021/03/04 02:01:16;;;;;;;105.68;46.00;;;7.10;99.90;;;;;;5083847;28;20713;-79
2021/03/04 02:03:42;;;;;;;95.63;46.15;;;7.00;99.90;;;;;;5084866;28;20190;-79
2021/03/04 02:06:09;;;;;;;89.53;44.33;;;6.90;99.90;;;;;;5083895;28;20198;-80
2021/03/04 02:08:46;;;;;;;86.35;45.25;;;6.90;99.90;;;;;;5085330;28;20564;-80
2021/03/04 02:11:19;;;;;;;94.80;44.10;;;6.90;99.90;;;;;;5084380;28;20193;-79
2021/03/04 02:13:50;;;;;;;90.50;45.40;;;7.00;99.90;;;;;;5084593;28;20205;-79
2021/03/04 02:16:20;;;;;;;85.72;40.60;;;7.00;99.90;;;;;;5083083;28;20190;-79
2021/03/04 02:18:52;;;;;;;80.57;38.33;;;6.90;99.90;;;;;;5084357;28;20259;-79
2021/03/04 02:21:44;;;;;;;88.45;42.60;;;6.90;99.90;;;;;;5084291;28;20210;-79
2021/03/04 02:24:36;;;;;;;82.43;42.05;;;7.00;99.90;;;;;;5079194;28;20614;-80
2021/03/04 02:27:09;;;;;;;101.15;48.90;;;7.00;99.90;;;;;;5083566;28;20179;-79
2021/03/04 02:29:40;;;;;;;87.10;46.05;;;7.00;99.90;;;;;;5084355;28;20199;-80
2021/03/04 02:32:09;;;;;;;91.18;47.42;;;7.10;99.90;;;;;;5083673;28;20190;-78
2021/03/04 02:34:39;;;;;;;90.95;48.00;;;7.00;99.90;;;;;;5083580;28;20273;-79
2021/03/04 02:37:06;;;;;;;84.97;45.33;;;6.90;99.90;;;;;;5086382;28;20217;-79
2021/03/04 02:39:33;;;;;;;89.70;43.47;;;6.70;99.90;;;;;;5088631;28;20190;-79
2021/03/04 02:42:00;;;;;;;100.72;48.33;;;6.60;99.90;;;;;;5088152;28;20278;-79
2021/03/04 02:44:28;;;;;;;98.00;44.58;;;6.60;99.90;;;;;;5087953;28;20209;-79
2021/03/04 02:46:54;;;;;;;82.78;45.15;;;6.60;99.90;;;;;;5087106;28;20207;-80
2021/03/04 02:49:21;;;;;;;88.65;46.20;;;6.60;99.90;;;;;;5087243;28;20186;-79
2021/03/04 02:51:49;;;;;;;93.13;45.17;;;6.60;99.90;;;;;;5087541;28;20190;-78
2021/03/04 02:54:16;;;;;;;90.55;46.05;;;6.60;99.90;;;;;;5087052;28;20201;-79
2021/03/04 02:56:43;;;;;;;93.18;46.63;;;6.60;99.90;;;;;;5087253;28;20670;-80
2021/03/04 02:59:10;;;;;;;95.00;45.85;;;6.60;99.90;;;;;;5088340;28;20211;-80
2021/03/04 03:01:39;;;;;;;95.88;45.58;;;6.70;99.90;;;;;;5087764;28;20214;-80
2021/03/04 03:04:06;;;;;;;85.90;45.30;;;6.70;99.90;;;;;;5087723;28;20194;-80
2021/03/04 03:06:35;;;;;;;89.35;39.33;;;6.70;99.90;;;;;;5087310;28;20565;-79
2021/03/04 03:09:03;;;;;;;87.25;40.08;;;6.70;99.90;;;;;;5088112;28;20259;-79
2021/03/04 03:11:30;;;;;;;87.65;40.83;;;6.70;99.90;;;;;;5087820;28;20194;-79
2021/03/04 03:13:58;;;;;;;92.22;41.72;;;6.80;99.90;;;;;;5087615;28;20216;-78
2021/03/04 03:16:26;;;;;;;85.15;41.70;;;6.70;99.90;;;;;;5086989;28;20194;-79
2021/03/04 03:18:54;;;;;;;78.65;39.30;;;6.70;99.90;;;;;;5086436;28;20214;-79
2021/03/04 03:21:20;;;;;;;88.13;44.95;;;6.70;99.90;;;;;;5087714;28;20210;-79
2021/03/04 03:23:46;;;;;;;93.32;44.80;;;6.60;99.90;;;;;;5087238;28;20201;-80
2021/03/04 03:26:12;;;;;;;90.68;43.63;;;6.60;99.90;;;;;;5086508;28;20205;-79
2021/03/04 03:28:39;;;;;;;88.75;40.80;;;6.50;99.90;;;;;;5087736;28;20210;-80
2021/03/04 03:31:06;;;;;;;95.93;42.80;;;6.50;99.90;;;;;;5087012;28;20232;-79
2021/03/04 03:33:32;;;;;;;84.00;42.75;;;6.60;99.90;;;;;;5086445;28;20201;-79
2021/03/04 03:35:59;;;;;;;88.45;47.13;;;6.60;99.90;;;;;;5086131;28;20224;-77
2021/03/04 03:38:27;;;;;;;86.45;44.78;;;6.40;99.90;;;;;;5087189;28;20211;-79
2021/03/04 03:40:55;;;;;;;98.32;44.88;;;6.20;99.90;;;;;;5086841;28;20245;-79
2021/03/04 03:43:24;;;;;;;88.43;43.13;;;6.20;99.90;;;;;;5087378;28;20194;-80
2021/03/04 03:45:51;;;;;;;104.57;50.97;;;6.10;99.90;;;;;;5085914;28;20190;-77
2021/03/04 03:48:21;;;;;;;89.38;43.63;;;6.10;99.90;;;;;;5085047;28;20229;-79
2021/03/04 03:50:49;;;;;;;93.68;46.53;;;5.90;99.90;;;;;;5086695;28;20190;-79
2021/03/04 03:53:17;;;;;;;102.50;40.58;;;5.90;99.90;;;;;;5086178;28;20202;-79
2021/03/04 03:55:46;;;;;;;86.78;38.97;;;5.90;99.90;;;;;;5086853;28;20210;-78
2021/03/04 03:58:13;;;;;;;84.68;38.65;;;6.00;99.90;;;;;;5085547;28;20233;-79
2021/03/04 04:00:41;;;;;;;88.00;40.22;;;5.90;99.90;;;;;;5091122;28;20618;-78
2021/03/04 04:03:09;;;;;;;88.95;44.38;;;5.80;99.90;;;;;;5089613;28;20197;-79
2021/03/04 04:05:36;;;;;;;92.13;38.40;;;5.70;99.90;;;;;;5086805;28;20199;-79
2021/03/04 04:08:03;;;;;;;86.30;42.78;;;5.80;99.90;;;;;;5084634;28;20220;-79
2021/03/04 04:10:32;;;;;;;82.20;43.00;;;5.80;99.90;;;;;;5086479;28;20198;-79
2021/03/04 04:12:59;;;;;;;86.97;46.42;;;5.70;99.90;;;;;;5086393;28;20204;-79
2021/03/04 04:15:26;;;;;;;98.35;46.88;;;5.50;99.90;;;;;;5086807;28;20193;-79
2021/03/04 04:17:56;;;;;;;94.05;47.70;;;5.50;99.90;;;;;;5084807;28;20206;-79
2021/03/04 04:20:22;;;;;;;92.45;44.75;;;5.50;99.90;;;;;;5086038;28;20202;-79
2021/03/04 04:22:51;;;;;;;100.57;47.10;;;5.50;99.90;;;;;;5086017;28;20190;-79
2021/03/04 04:25:20;;;;;;;105.80;45.83;;;5.40;99.90;;;;;;5085789;28;20197;-79
2021/03/04 04:27:49;;;;;;;99.75;48.75;;;5.40;99.90;;;;;;5085640;28;20214;-76
2021/03/04 04:30:16;;;;;;;79.45;31.35;;;5.20;99.90;;;;;;5085760;28;20240;-79
2021/03/04 04:32:43;;;;;;;58.47;25.65;;;5.10;99.90;;;;;;5085406;28;20205;-77
2021/03/04 04:35:10;;;;;;;55.28;26.95;;;5.10;99.90;;;;;;5085930;28;20197;-79
2021/03/04 04:37:37;;;;;;;65.75;26.92;;;5.00;99.90;;;;;;5084084;28;20284;-79
2021/03/04 04:40:04;;;;;;;52.80;21.58;;;5.10;99.90;;;;;;5081831;28;20206;-78
2021/03/04 04:42:30;;;;;;;24.85;13.50;;;5.10;99.90;;;;;;5079736;28;20287;-78
2021/03/04 04:44:57;;;;;;;2.70;2.50;;;4.90;99.90;;;;;;5080982;28;20200;-79
2021/03/04 04:47:24;;;;;;;13.60;7.82;;;4.80;99.90;;;;;;5079929;28;20217;-78
2021/03/04 04:49:50;;;;;;;1.58;1.48;;;4.90;99.90;;;;;;5082265;28;20612;-77
2021/03/04 04:52:16;;;;;;;0.60;0.60;;;4.80;99.90;;;;;;5084043;28;20194;-79
2021/03/04 04:54:42;;;;;;;0.50;0.40;;;4.70;99.90;;;;;;5084062;28;20205;-79
2021/03/04 04:57:09;;;;;;;1.70;1.30;;;4.70;99.90;;;;;;5084615;28;20225;-78
2021/03/04 04:59:35;;;;;;;0.60;0.50;;;4.70;99.90;;;;;;5087981;28;20194;-78
2021/03/04 05:02:03;;;;;;;0.50;0.40;;;4.80;99.90;;;;;;5086103;28;20220;-79
2021/03/04 05:04:29;;;;;;;0.50;0.40;;;4.80;99.90;;;;;;5082971;28;20193;-79
2021/03/04 05:06:55;;;;;;;0.50;0.40;;;4.80;99.90;;;;;;5082736;28;20588;-78
2021/03/04 05:09:22;;;;;;;0.50;0.50;;;4.80;99.90;;;;;;5081635;28;20198;-79
2021/03/04 05:11:48;;;;;;;0.60;0.55;;;4.90;99.90;;;;;;5083357;28;20194;-79
2021/03/04 05:14:14;;;;;;;1.58;1.48;;;5.00;99.90;;;;;;5082048;28;20201;-79
2021/03/04 05:16:41;;;;;;;0.80;0.80;;;4.90;99.90;;;;;;5081691;28;20190;-78
2021/03/04 05:19:08;;;;;;;0.50;0.40;;;5.00;99.90;;;;;;5081783;28;20225;-79
2021/03/04 05:21:34;;;;;;;0.50;0.40;;;5.00;99.90;;;;;;5078894;28;20210;-78
2021/03/04 05:24:01;;;;;;;2.35;2.25;;;4.90;99.90;;;;;;5076384;28;20194;-78
2021/03/04 05:26:27;;;;;;;0.50;0.40;;;5.00;99.90;;;;;;5076370;28;20197;-78
2021/03/04 05:28:53;;;;;;;1.73;1.63;;;5.10;99.90;;;;;;5075605;28;20228;-78
2021/03/04 05:31:19;;;;;;;0.50;0.40;;;5.00;99.90;;;;;;5076074;28;20203;-78
2021/03/04 05:33:46;;;;;;;1.17;1.15;;;5.00;99.90;;;;;;5076375;28;20858;-78
2021/03/04 05:36:13;;;;;;;1.60;1.45;;;5.00;99.90;;;;;;5075881;28;20223;-78
2021/03/04 05:38:39;;;;;;;0.65;0.65;;;5.00;99.90;;;;;;5077715;28;20568;-78
2021/03/04 05:41:06;;;;;;;0.60;0.45;;;5.00;99.90;;;;;;5076540;28;20225;-78
2021/03/04 05:43:34;;;;;;;0.50;0.40;;;4.90;99.90;;;;;;5076834;28;20289;-78
2021/03/04 05:46:00;;;;;;;1.67;1.67;;;5.00;99.90;;;;;;5075365;28;20688;-75
2021/03/04 05:48:29;;;;;;;0.90;0.90;;;5.00;99.90;;;;;;5074700;23;20882;-82
2021/03/04 05:50:57;;;;;;;0.50;0.40;;;5.10;99.90;;;;;;5023049;28;20582;-84
2021/03/04 05:53:25;;;;;;;0.50;0.40;;;5.10;99.90;;;;;;5035078;28;20201;-81
2021/03/04 05:55:52;;;;;;;2.10;1.88;;;5.00;99.90;;;;;;5055852;28;20199;-81
2021/03/04 05:58:19;;;;;;;0.80;0.80;;;5.10;99.90;;;;;;5044634;28;20222;-81
2021/03/04 06:00:45;;;;;;;0.50;0.40;;;5.10;99.90;;;;;;5037660;28;20218;-80
2021/03/04 06:03:12;;;;;;;3.80;3.53;;;5.10;99.90;;;;;;5041446;28;20661;-79
2021/03/04 06:05:39;;;;;;;0.52;0.50;;;5.10;99.90;;;;;;5037597;28;20199;-80
2021/03/04 06:08:07;;;;;;;0.55;0.50;;;5.10;99.90;;;;;;5039213;28;20223;-80
2021/03/04 06:10:34;;;;;;;5.55;5.07;;;5.00;99.90;;;;;;5038875;28;20188;-80
2021/03/04 06:13:01;;;;;;;1.23;1.23;;;5.00;99.90;;;;;;5039107;28;20688;-80
2021/03/04 06:15:29;;;;;;;0.98;0.98;;;5.00;99.90;;;;;;5039170;28;20226;-79
2021/03/04 06:17:57;;;;;;;0.50;0.40;;;5.00;99.90;;;;;;5037895;28;20202;-80
2021/03/04 06:20:24;;;;;;;0.52;0.50;;;5.00;99.90;;;;;;5038849;28;20203;-80
2021/03/04 06:22:51;;;;;;;0.50;0.40;;;5.00;99.90;;;;;;5038167;28;20680;-80
2021/03/04 06:25:18;;;;;;;0.50;0.40;;;5.10;99.90;;;;;;5039124;28;20684;-80
2021/03/04 06:27:47;;;;;;;0.50;0.40;;;5.10;99.90;;;;;;5036497;28;20199;-77
2021/03/04 06:30:15;;;;;;;0.50;0.40;;;5.10;99.90;;;;;;5038438;28;20199;-79
2021/03/04 06:32:54;;;;;;;2.45;2.35;;;5.10;99.90;;;;;;5039537;28;20205;-80
2021/03/04 06:35:20;;;;;;;0.60;0.40;;;5.20;99.90;;;;;;5039585;28;20193;-82
2021/03/04 06:37:47;;;;;;;0.50;0.40;;;5.30;99.90;;;;;;5038036;28;20207;-80
2021/03/04 06:40:26;;;;;;;0.50;0.40;;;5.30;99.90;;;;;;5039749;28;20612;-80
2021/03/04 06:42:54;;;;;;;1.63;1.60;;;5.40;99.90;;;;;;5039454;28;20186;-79
2021/03/04 06:45:31;;;;;;;0.85;0.85;;;5.40;99.90;;;;;;5039292;28;20871;-80
2021/03/04 06:48:09;;;;;;;0.50;0.40;;;5.20;99.90;;;;;;5037966;28;20289;-80
2021/03/04 06:50:36;;;;;;;2.05;1.95;;;5.20;99.90;;;;;;5032357;28;20184;-80
2021/03/04 06:53:16;;;;;;;3.90;3.28;;;5.40;99.90;;;;;;5038775;28;20658;-80
2021/03/04 06:55:53;;;;;;;2.55;2.35;;;5.50;99.90;;;;;;5038109;28;20202;-79
2021/03/04 06:58:31;;;;;;;0.60;0.60;;;5.50;99.90;;;;;;5044925;28;20226;-84
2021/03/04 07:01:09;;;;;;;13.55;4.75;;;5.50;99.90;;;;;;5043488;28;20226;-80
2021/03/04 07:03:39;;;;;;;0.60;0.52;;;5.50;99.90;;;;;;5038974;28;20202;-80
2021/03/04 07:06:07;;;;;;;0.70;0.70;;;5.50;99.90;;;;;;5035859;28;20223;-80
2021/03/04 07:08:35;;;;;;;3.35;3.25;;;5.50;99.90;;;;;;5039139;28;20224;-78
2021/03/04 07:11:03;;;;;;;0.50;0.40;;;5.30;99.90;;;;;;5043057;28;20202;-81
2021/03/04 07:13:33;;;;;;;2.05;1.95;;;5.30;99.90;;;;;;5043294;28;20199;-81
2021/03/04 07:16:04;;;;;;;0.50;0.40;;;5.30;99.90;;;;;;5042603;28;20199;-81
2021/03/04 07:18:34;;;;;;;0.85;0.85;;;5.30;99.90;;;;;;5044109;28;20234;-81
2021/03/04 07:21:02;;;;;;;0.50;0.40;;;5.30;99.90;;;;;;5042573;28;20265;-80
2021/03/04 07:23:29;;;;;;;3.83;3.60;;;5.40;99.90;;;;;;5046079;28;20623;-81
2021/03/04 07:25:55;;;;;;;7.05;2.85;;;5.40;99.90;;;;;;5046561;28;20225;-81
2021/03/04 07:28:24;;;;;;;2.97;2.88;;;5.50;99.90;;;;;;5047961;28;20268;-81
2021/03/04 07:30:51;;;;;;;0.60;0.60;;;5.50;99.90;;;;;;5047839;28;20366;-78
2021/03/04 07:33:17;;;;;;;7.82;4.60;;;5.50;99.90;;;;;;5047927;28;20206;-80
2021/03/04 07:35:45;;;;;;;3.67;3.20;;;5.40;99.90;;;;;;5048474;28;20254;-81
2021/03/04 07:38:22;;;;;;;0.60;0.60;;;5.40;99.90;;;;;;5048028;28;20230;-82
2021/03/04 07:40:59;;;;;;;0.50;0.40;;;5.40;99.90;;;;;;5048381;28;20198;-79
2021/03/04 07:43:25;;;;;;;3.17;3.08;;;5.30;99.90;;;;;;5036676;28;20195;-81
2021/03/04 07:45:53;;;;;;;0.50;0.50;;;5.10;99.90;;;;;;5034262;28;20198;-81
2021/03/04 07:48:19;;;;;;;1.02;1.02;;;5.10;99.90;;;;;;5043406;28;20226;-81
2021/03/04 07:50:55;;;;;;;0.50;0.40;;;5.10;99.90;;;;;;5062484;28;20233;-82
2021/03/04 07:53:22;;;;;;;0.50;0.40;;;5.00;99.90;;;;;;5066520;28;20201;-81
2021/03/04 07:55:50;;;;;;;0.50;0.50;;;5.00;99.90;;;;;;5064657;28;20351;-81
2021/03/04 07:58:17;;;;;;;0.70;0.70;;;5.00;99.90;;;;;;5071801;28;20302;-82
2021/03/04 08:00:43;;;;;;;1.17;1.17;;;5.10;99.90;;;;;;5068959;28;20281;-82
2021/03/04 08:03:10;;;;;;;0.50;0.40;;;5.00;99.90;;;;;;5068031;28;20194;-82
2021/03/04 08:05:38;;;;;;;0.50;0.40;;;5.00;99.90;;;;;;5065814;28;20217;-81
2021/03/04 08:08:14;;;;;;;0.50;0.40;;;5.00;99.90;;;;;;5066950;28;20249;-82
2021/03/04 08:10:50;;;;;;;1.40;1.40;;;5.10;99.90;;;;;;5066241;28;20240;-82
2021/03/04 08:13:17;;;;;;;0.50;0.40;;;5.10;99.90;;;;;;5068362;28;20205;-82
2021/03/04 08:15:44;;;;;;;2.03;1.95;;;5.10;99.90;;;;;;5066928;28;20198;-80
2021/03/04 08:18:18;;;;;;;0.50;0.40;;;5.10;99.90;;;;;;5067065;28;20224;-83
2021/03/04 08:20:46;;;;;;;0.50;0.40;;;5.10;99.90;;;;;;5065680;28;20182;-83
2021/03/04 08:23:12;;;;;;;0.50;0.40;;;5.10;99.90;;;;;;5064592;28;20218;-83
2021/03/04 08:25:41;;;;;;;0.60;0.40;;;5.20;99.90;;;;;;5063187;28;20217;-82
2021/03/04 08:28:08;;;;;;;0.50;0.40;;;5.20;99.90;;;;;;5060904;28;20211;-82
2021/03/04 08:30:37;;;;;;;0.55;0.55;;;5.20;99.90;;;;;;5062967;28;20217;-83
2021/03/04 08:33:05;;;;;;;0.50;0.40;;;5.20;99.90;;;;;;5063268;28;20233;-84
2021/03/04 08:35:36;;;;;;;2.10;2.00;;;5.20;99.90;;;;;;5063249;28;20202;-84
2021/03/04 08:38:05;;;;;;;0.50;0.40;;;5.20;99.90;;;;;;5062934;28;20278;-82
2021/03/04 08:40:39;;;;;;;0.50;0.40;;;5.20;99.90;;;;;;5062336;28;20190;-82
2021/03/04 08:43:10;;;;;;;0.50;0.40;;;5.10;99.90;;;;;;5060913;28;20181;-83
2021/03/04 08:45:36;;;;;;;0.60;0.60;;;5.10;99.90;;;;;;5061830;28;20293;-82
2021/03/04 08:48:05;;;;;;;0.50;0.40;;;5.00;99.90;;;;;;5059497;28;20199;-82
2021/03/04 08:50:38;;;;;;;0.85;0.85;;;5.00;99.90;;;;;;5056610;28;20212;-81
2021/03/04 08:53:12;;;;;;;0.50;0.40;;;5.00;99.90;;;;;;5056299;28;20193;-82
2021/03/04 08:55:48;;;;;;;1.40;1.40;;;5.10;99.90;;;;;;5056904;28;20202;-81
2021/03/04 08:58:14;;;;;;;0.50;0.40;;;5.20;99.90;;;;;;5056510;28;20313;-83
2021/03/04 09:00:46;;;;;;;0.50;0.40;;;5.20;99.90;;;;;;5056721;28;20191;-81
2021/03/04 09:03:12;;;;;;;0.80;0.80;;;5.10;99.90;;;;;;5057806;28;20200;-82
2021/03/04 09:05:39;;;;;;;0.50;0.40;;;5.10;99.90;;;;;;5058033;28;20202;-81
2021/03/04 09:08:10;;;;;;;0.50;0.40;;;5.00;99.90;;;;;;5055412;28;20211;-81
2021/03/04 09:10:41;;;;;;;1.30;1.20;;;5.10;99.90;;;;;;5055568;28;20195;-81
2021/03/04 09:13:08;;;;;;;0.50;0.40;;;5.00;99.90;;;;;;5057313;28;20289;-80
2021/03/04 09:15:35;;;;;;;0.50;0.40;;;5.10;99.90;;;;;;5056928;28;20205;-80
2021/03/04 09:18:06;;;;;;;0.50;0.40;;;5.10;99.90;;;;;;5055700;28;20727;-81
2021/03/04 09:20:34;;;;;;;0.60;0.60;;;5.10;99.90;;;;;;5055928;28;20183;-81
2021/03/04 09:23:03;;;;;;;0.80;0.80;;;5.00;99.90;;;;;;5063359;28;20220;-82
2021/03/04 09:25:29;;;;;;;0.50;0.40;;;5.00;99.90;;;;;;5067727;28;20218;-80
2021/03/04 09:27:56;;;;;;;0.50;0.40;;;5.00;99.90;;;;;;5074819;28;20197;-81
2021/03/04 09:30:27;;;;;;;0.60;0.60;;;5.00;99.90;;;;;;5056901;28;20576;-81
2021/03/04 09:32:54;;;;;;;11.63;3.45;;;5.00;99.90;;;;;;5054933;28;20560;-79
2021/03/04 09:35:20;;;;;;;0.50;0.40;;;5.00;99.90;;;;;;5056646;28;20194;-81
2021/03/04 09:37:46;;;;;;;0.50;0.40;;;5.00;99.90;;;;;;5062668;28;20244;-77
2021/03/04 09:40:28;;;;;;;0.50;0.45;;;5.00;99.90;;;;;;5061303;28;20301;-81
2021/03/04 09:42:55;;;;;;;0.55;0.52;;;5.10;99.90;;;;;;5059606;28;20289;-76
2021/03/04 09:45:21;;;;;;;0.50;0.40;;;5.10;99.90;;;;;;5056109;28;20258;-81
2021/03/04 09:47:49;;;;;;;0.50;0.40;;;5.10;99.90;;;;;;5059022;28;20220;-80
2021/03/04 09:50:22;;;;;;;0.50;0.40;;;5.10;99.90;;;;;;5054907;28;20236;-79
2021/03/04 09:53:03;;;;;;;0.50;0.40;;;5.10;99.90;;;;;;5053402;28;20195;-81
2021/03/04 09:55:37;;;;;;;0.50;0.40;;;5.00;99.90;;;;;;5050126;28;20189;-81
2021/03/04 09:58:10;;;;;;;0.50;0.40;;;4.90;99.90;;;;;;5058275;28;20197;-81
2021/03/04 10:00:37;;;;;;;0.73;0.73;;;4.90;99.90;;;;;;5057679;28;20205;-81
2021/03/04 10:03:09;;;;;;;0.50;0.47;;;5.00;99.90;;;;;;5059270;28;20190;-80
2021/03/04 10:05:45;;;;;;;0.50;0.40;;;4.90;99.90;;;;;;5054323;28;20217;-80
2021/03/04 10:08:11;;;;;;;0.50;0.40;;;5.00;99.90;;;;;;5056494;28;20214;-80
2021/03/04 10:10:39;;;;;;;0.50;0.50;;;5.00;99.90;;;;;;5057477;28;20199;-81
2021/03/04 10:13:05;;;;;;;0.50;0.40;;;4.90;99.90;;;;;;5056443;28;20190;-82
2021/03/04 10:15:34;;;;;;;0.65;0.65;;;4.90;99.90;;;;;;5055456;28;20205;-82
2021/03/04 10:18:03;;;;;;;0.70;0.70;;;5.00;99.90;;;;;;5053461;28;20282;-80
2021/03/04 10:20:29;;;;;;;0.50;0.40;;;4.90;99.90;;;;;;5049083;28;20637;-80
2021/03/04 10:22:55;;;;;;;0.50;0.40;;;4.90;99.90;;;;;;5051673;28;20198;-80
2021/03/04 10:25:22;;;;;;;0.50;0.40;;;4.80;99.90;;;;;;5077019;28;20247;-80
2021/03/04 10:27:49;;;;;;;0.50;0.40;;;4.80;99.90;;;;;;5075825;28;20693;-79
2021/03/04 10:30:17;;;;;;;0.50;0.40;;;4.80;99.90;;;;;;5076569;28;20211;-80
2021/03/04 10:32:44;;;;;;;0.50;0.40;;;4.80;99.90;;;;;;5076616;28;20209;-81
2021/03/04 10:35:12;;;;;;;0.50;0.40;;;4.90;99.90;;;;;;5076531;28;20296;-79
2021/03/04 10:37:39;;;;;;;0.50;0.40;;;4.90;99.90;;;;;;5079587;28;20227;-82
2021/03/04 10:40:07;;;;;;;0.50;0.40;;;5.00;99.90;;;;;;5078976;28;20225;-82
2021/03/04 10:42:34;;;;;;;0.60;0.60;;;5.10;99.90;;;;;;5078181;28;20194;-81
2021/03/04 10:45:01;;;;;;;0.50;0.40;;;5.10;99.90;;;;;;5078286;28;20198;-81
2021/03/04 10:47:28;;;;;;;0.95;0.95;;;5.20;99.90;;;;;;5076437;28;20201;-81
2021/03/04 10:49:54;;;;;;;0.50;0.40;;;5.40;99.90;;;;;;5060119;28;20525;-82
2021/03/04 10:52:21;;;;;;;0.50;0.40;;;5.40;99.90;;;;;;5057150;28;20214;-81
2021/03/04 10:54:48;;;;;;;0.60;0.40;;;5.40;99.90;;;;;;5056812;28;20198;-80
2021/03/04 10:57:14;;;;;;;0.60;0.60;;;5.50;99.90;;;;;;5057607;28;20249;-80
2021/03/04 10:59:41;;;;;;;0.50;0.40;;;5.60;99.90;;;;;;5056908;28;20207;-80
2021/03/04 11:02:08;;;;;;;0.50;0.40;;;5.60;99.90;;;;;;5059043;28;20190;-81
2021/03/04 11:04:34;;;;;;;0.50;0.50;;;5.60;99.90;;;;;;5058171;28;20301;-83
2021/03/04 11:07:01;;;;;;;2.75;1.88;;;5.50;99.90;;;;;;5055092;28;20193;-79
2021/03/04 11:09:28;;;;;;;0.60;0.50;;;5.40;99.90;;;;;;5058795;28;20260;-80
2021/03/04 11:11:54;;;;;;;0.50;0.40;;;5.30;99.90;;;;;;5058135;28;20219;-78
2021/03/04 11:14:20;;;;;;;0.50;0.40;;;5.40;99.90;;;;;;5057514;28;20198;-82
2021/03/04 11:16:46;;;;;;;0.50;0.40;;;5.50;99.90;;;;;;5057891;28;20201;-81
2021/03/04 11:19:13;;;;;;;0.50;0.40;;;5.50;99.90;;;;;;5058896;28;20226;-80
2021/03/04 11:21:40;;;;;;;0.50;0.40;;;5.60;99.90;;;;;;5058465;28;20191;-81
2021/03/04 11:24:07;;;;;;;0.50;0.40;;;5.50;99.90;;;;;;5069214;28;20192;-81
2021/03/04 11:26:37;;;;;;;0.50;0.40;;;5.50;99.90;;;;;;5073641;28;20226;-82
2021/03/04 11:29:04;;;;;;;0.60;0.50;;;5.60;99.90;;;;;;5059922;28;20219;-82
2021/03/04 11:31:31;;;;;;;0.50;0.40;;;5.60;99.90;;;;;;5059828;28;20214;-81
2021/03/04 11:33:57;;;;;;;0.65;0.65;;;5.40;99.90;;;;;;5059933;28;20194;-81
2021/03/04 11:36:24;;;;;;;0.50;0.40;;;5.40;99.90;;;;;;5057807;28;20272;-80
2021/03/04 11:38:50;;;;;;;4.32;1.40;;;5.40;99.90;;;;;;5055232;28;20283;-82
2021/03/04 11:41:16;;;;;;;0.50;0.40;;;5.40;99.90;;;;;;5057865;28;20228;-82
2021/03/04 11:43:43;;;;;;;5.53;5.32;;;5.50;99.90;;;;;;5057859;28;20194;-83
2021/03/04 11:46:09;;;;;;;0.50;0.40;;;5.50;99.90;;;;;;5057592;28;20695;-82
2021/03/04 11:48:35;;;;;;;1.13;1.05;;;5.50;99.90;;;;;;5058062;28;20271;-83
2021/03/04 11:51:01;;;;;;;1.42;1.38;;;5.50;99.90;;;;;;5113805;22;20236;-77
2021/03/04 11:53:28;;;;;;;1.38;1.27;;;5.50;99.90;;;;;;5090894;28;20217;-79
2021/03/04 11:55:55;;;;;;;1.23;1.13;;;5.50;99.90;;;;;;5100861;28;20193;-79
2021/03/04 11:58:21;;;;;;;0.50;0.40;;;5.40;99.90;;;;;;5117593;28;20291;-79
2021/03/04 12:00:47;;;;;;;1.77;1.40;;;5.40;99.90;;;;;;5117953;28;20208;-80
2021/03/04 12:03:13;;;;;;;9.52;1.63;;;5.50;99.90;;;;;;5105333;28;20214;-79
2021/03/04 12:05:40;;;;;;;11.73;2.08;;;5.50;99.90;;;;;;5104015;28;20189;-77
2021/03/04 12:08:07;;;;;;;1.67;1.58;;;5.40;99.90;;;;;;5102990;28;20280;-79
2021/03/04 12:10:34;;;;;;;0.50;0.40;;;5.40;99.90;;;;;;5106214;28;20275;-80
2021/03/04 12:13:00;;;;;;;0.50;0.40;;;5.50;99.90;;;;;;5104798;28;20217;-79
2021/03/04 12:15:26;;;;;;;0.50;0.40;;;5.50;99.90;;;;;;5105624;28;20192;-79
2021/03/04 12:17:53;;;;;;;0.50;0.40;;;5.40;99.90;;;;;;5104424;28;20566;-80
2021/03/04 12:20:19;;;;;;;0.50;0.40;;;5.10;99.90;;;;;;5111410;28;20216;-80
2021/03/04 12:22:45;;;;;;;0.50;0.40;;;5.20;99.90;;;;;;5113696;28;20239;-80
2021/03/04 12:25:12;;;;;;;0.50;0.40;;;5.20;99.90;;;;;;5111294;28;20195;-77
2021/03/04 12:27:40;;;;;;;0.52;0.52;;;5.30;99.90;;;;;;5107485;28;20205;-80
2021/03/04 12:30:07;;;;;;;0.50;0.50;;;5.30;99.90;;;;;;5108039;28;20193;-79
2021/03/04 12:32:33;;;;;;;0.50;0.40;;;5.30;99.90;;;;;;5109710;28;20224;-80
2021/03/04 12:34:59;;;;;;;0.88;0.88;;;5.30;99.90;;;;;;5113450;28;20193;-78
2021/03/04 12:37:26;;;;;;;0.50;0.50;;;5.30;99.90;;;;;;5112622;28;20567;-81
2021/03/04 12:39:52;;;;;;;0.50;0.43;;;5.30;99.90;;;;;;5114086;28;20197;-79
2021/03/04 12:42:19;;;;;;;1.50;1.50;;;5.10;99.90;;;;;;5114139;28;20225;-79
2021/03/04 12:44:46;;;;;;;0.50;0.40;;;5.00;99.90;;;;;;5112428;28;20287;-78
2021/03/04 12:47:12;;;;;;;1.88;1.77;;;5.00;99.90;;;;;;5109324;28;20213;-80
2021/03/04 12:49:39;;;;;;;0.50;0.40;;;5.00;99.90;;;;;;5106738;28;20192;-79
2021/03/04 12:52:06;;;;;;;0.50;0.40;;;4.90;99.90;;;;;;5095119;28;20226;-80